createdAt,value
2023-04-15T00:00:27.700Z,61.84
2023-04-15T00:01:27.643Z,58.00
2023-04-15T00:02:28.771Z,61.02
2023-04-15T00:03:27.793Z,62.12
2023-04-15T00:04:27.635Z,62.12
2023-04-15T00:05:27.574Z,61.00
2023-04-15T00:06:27.602Z,60.62
2023-04-15T00:07:27.561Z,60.37
2023-04-15T00:08:27.549Z,59.83
2023-04-15T00:09:27.540Z,60.72
2023-04-15T00:10:27.519Z,59.45
2023-04-15T00:11:27.536Z,60.10
2023-04-15T00:12:27.490Z,62.65
2023-04-15T00:13:27.488Z,59.54
2023-04-15T00:14:27.460Z,59.13
2023-04-15T00:15:27.448Z,59.95
2023-04-15T00:16:27.489Z,60.91
2023-04-15T00:17:27.452Z,61.45
2023-04-15T00:18:27.408Z,56.82
2023-04-15T00:19:27.420Z,56.26
2023-04-15T00:20:27.388Z,57.85
2023-04-15T00:21:27.436Z,58.52
2023-04-15T00:22:27.388Z,58.25
2023-04-15T00:23:27.360Z,61.12
2023-04-15T00:24:27.346Z,60.94
2023-04-15T00:25:27.335Z,61.58
2023-04-15T00:26:27.414Z,60.69
2023-04-15T00:27:27.348Z,58.92
2023-04-15T00:28:27.325Z,60.40
2023-04-15T00:29:27.301Z,61.38
2023-04-15T00:30:27.309Z,60.74
2023-04-15T00:31:27.342Z,59.66
2023-04-15T00:32:27.327Z,62.00
2023-04-15T00:33:27.249Z,60.16
2023-04-15T00:34:28.003Z,60.57
2023-04-15T00:35:27.240Z,61.23
2023-04-15T00:36:27.239Z,57.32
2023-04-15T00:37:27.340Z,60.39
2023-04-15T00:38:27.232Z,57.78
2023-04-15T00:39:27.197Z,59.86
2023-04-15T00:40:27.209Z,58.42
2023-04-15T00:41:27.159Z,57.04
2023-04-15T00:42:27.189Z,60.75
2023-04-15T00:43:27.171Z,57.77
2023-04-15T00:44:27.123Z,60.94
2023-04-15T00:45:27.106Z,60.07
2023-04-15T00:46:27.118Z,59.04
2023-04-15T00:47:27.120Z,58.33
2023-04-15T00:48:27.113Z,56.67
2023-04-15T00:49:27.093Z,57.89
2023-04-15T00:50:27.070Z,57.27
2023-04-15T00:51:27.078Z,57.95
2023-04-15T00:52:27.051Z,58.13
2023-04-15T00:53:27.156Z,57.52
2023-04-15T00:54:27.028Z,57.36
2023-04-15T00:55:27.025Z,57.94
2023-04-15T00:56:27.037Z,55.51
2023-04-15T00:57:27.035Z,57.78
2023-04-15T00:58:27.061Z,60.58
2023-04-15T00:59:26.990Z,56.28
2023-04-15T01:00:27.058Z,57.77
2023-04-15T01:01:27.019Z,59.46
2023-04-15T01:02:27.029Z,58.26
2023-04-15T01:03:27.092Z,56.65
2023-04-15T01:04:26.997Z,59.34
2023-04-15T01:05:26.924Z,53.31
2023-04-15T01:06:26.887Z,57.95
2023-04-15T01:07:26.886Z,58.05
2023-04-15T01:08:26.928Z,55.75
2023-04-15T01:09:26.917Z,58.06
2023-04-15T01:10:26.874Z,56.77
2023-04-15T01:11:26.814Z,60.45
2023-04-15T01:12:26.827Z,59.07
2023-04-15T01:13:26.843Z,56.46
2023-04-15T01:14:26.853Z,60.44
2023-04-15T01:15:26.841Z,58.57
2023-04-15T01:16:26.784Z,57.96
2023-04-15T01:17:26.789Z,55.87
2023-04-15T01:18:26.777Z,58.11
2023-04-15T01:19:26.731Z,59.52
2023-04-15T01:20:26.743Z,52.48
2023-04-15T01:21:26.724Z,56.89
2023-04-15T01:22:26.813Z,58.28
2023-04-15T01:23:26.720Z,58.77
2023-04-15T01:24:26.685Z,59.95
2023-04-15T01:25:26.719Z,55.37
2023-04-15T01:26:26.683Z,57.14
2023-04-15T01:27:26.684Z,58.44
2023-04-15T01:28:26.631Z,57.92
2023-04-15T01:29:26.640Z,57.07
2023-04-15T01:30:26.634Z,60.75
2023-04-15T01:31:26.642Z,58.30
2023-04-15T01:32:26.622Z,60.45
2023-04-15T01:33:26.596Z,60.45
2023-04-15T01:34:26.569Z,60.60
2023-04-15T01:35:26.629Z,61.93
2023-04-15T01:36:26.569Z,58.40
2023-04-15T01:37:26.537Z,59.46
2023-04-15T01:38:26.559Z,57.39
2023-04-15T01:39:26.534Z,58.97
2023-04-15T01:40:26.520Z,58.02
2023-04-15T01:41:26.525Z,56.68
2023-04-15T01:42:26.498Z,59.51
2023-04-15T01:43:26.469Z,61.31
2023-04-15T01:44:26.507Z,59.70
2023-04-15T01:45:26.478Z,57.76
2023-04-15T01:46:26.492Z,58.20
2023-04-15T01:47:26.475Z,62.20
2023-04-15T01:48:26.409Z,59.81
2023-04-15T01:49:26.406Z,58.35
2023-04-15T01:50:26.450Z,58.91
2023-04-15T01:51:26.446Z,57.96
2023-04-15T01:52:26.407Z,59.78
2023-04-15T01:53:26.396Z,56.48
2023-04-15T01:54:26.366Z,57.68
2023-04-15T01:55:26.344Z,60.94
2023-04-15T01:56:26.348Z,58.86
2023-04-15T01:57:26.332Z,57.52
2023-04-15T01:58:26.330Z,57.64
2023-04-15T01:59:26.293Z,58.73
2023-04-15T02:00:26.283Z,58.57
2023-04-15T02:01:26.394Z,59.92
2023-04-15T02:02:26.331Z,61.20
2023-04-15T02:03:26.325Z,56.33
2023-04-15T02:04:26.242Z,58.67
2023-04-15T02:05:26.234Z,60.33
2023-04-15T02:06:26.210Z,60.22
2023-04-15T02:07:27.252Z,60.18
2023-04-15T02:08:26.231Z,58.40
2023-04-15T02:09:26.186Z,57.99
2023-04-15T02:10:26.192Z,60.53
2023-04-15T02:11:26.203Z,58.67
2023-04-15T02:12:26.145Z,59.82
2023-04-15T02:13:26.169Z,56.70
2023-04-15T02:14:26.155Z,57.86
2023-04-15T02:15:26.157Z,59.50
2023-04-15T02:16:26.132Z,58.48
2023-04-15T02:17:26.143Z,60.67
2023-04-15T02:18:26.138Z,57.75
2023-04-15T02:19:26.083Z,56.30
2023-04-15T02:20:26.062Z,60.67
2023-04-15T02:21:26.050Z,62.70
2023-04-15T02:22:26.050Z,59.96
2023-04-15T02:23:26.063Z,56.86
2023-04-15T02:24:26.316Z,61.22
2023-04-15T02:25:26.004Z,61.44
2023-04-15T02:26:26.000Z,58.82
2023-04-15T02:27:25.993Z,58.91
2023-04-15T02:28:25.988Z,59.76
2023-04-15T02:29:25.970Z,60.20
2023-04-15T02:30:25.966Z,60.93
2023-04-15T02:31:25.966Z,61.64
2023-04-15T02:32:25.968Z,58.99
2023-04-15T02:33:26.168Z,59.55
2023-04-15T02:34:25.937Z,58.74
2023-04-15T02:35:25.924Z,59.50
2023-04-15T02:36:25.891Z,61.05
2023-04-15T02:37:25.883Z,57.08
2023-04-15T02:38:25.870Z,56.69
2023-04-15T02:39:25.906Z,57.06
2023-04-15T02:40:25.881Z,55.75
2023-04-15T02:41:25.833Z,57.63
2023-04-15T02:42:25.808Z,58.58
2023-04-15T02:43:25.826Z,57.25
2023-04-15T02:44:25.790Z,58.62
2023-04-15T02:45:25.807Z,58.05
2023-04-15T02:46:25.822Z,57.68
2023-04-15T02:47:25.800Z,58.68
2023-04-15T02:48:25.764Z,58.84
2023-04-15T02:49:25.751Z,55.13
2023-04-15T02:50:25.766Z,57.51
2023-04-15T02:51:25.713Z,57.71
2023-04-15T02:52:25.698Z,58.78
2023-04-15T02:53:25.685Z,57.23
2023-04-15T02:54:25.708Z,56.36
2023-04-15T02:55:25.687Z,57.27
2023-04-15T02:56:25.699Z,57.80
2023-04-15T02:57:25.640Z,58.82
2023-04-15T02:58:25.632Z,59.22
2023-04-15T02:59:25.644Z,56.11
2023-04-15T03:00:25.617Z,57.72
2023-04-15T03:01:25.686Z,57.84
2023-04-15T03:02:25.734Z,58.35
2023-04-15T03:03:25.640Z,58.48
2023-04-15T03:04:25.562Z,57.11
2023-04-15T03:05:25.556Z,58.07
2023-04-15T03:06:25.594Z,57.53
2023-04-15T03:07:25.556Z,55.81
2023-04-15T03:08:25.520Z,59.47
2023-04-15T03:09:25.521Z,62.45
2023-04-15T03:10:25.521Z,58.09
2023-04-15T03:11:25.497Z,59.62
2023-04-15T03:12:25.497Z,57.31
2023-04-15T03:13:25.453Z,59.12
2023-04-15T03:14:25.448Z,56.72
2023-04-15T03:15:25.443Z,57.47
2023-04-15T03:16:25.434Z,57.46
2023-04-15T03:17:25.488Z,58.55
2023-04-15T03:18:25.437Z,59.10
2023-04-15T03:19:26.038Z,58.35
2023-04-15T03:20:25.436Z,58.21
2023-04-15T03:21:25.386Z,57.84
2023-04-15T03:22:25.407Z,57.16
2023-04-15T03:23:25.373Z,60.53
2023-04-15T03:24:25.359Z,58.33
2023-04-15T03:25:25.329Z,58.31
2023-04-15T03:26:25.402Z,56.46
2023-04-15T03:27:25.326Z,57.17
2023-04-15T03:28:25.891Z,54.44
2023-04-15T03:29:25.323Z,60.44
2023-04-15T03:30:25.288Z,59.21
2023-04-15T03:31:25.268Z,59.29
2023-04-15T03:32:25.262Z,57.99
2023-04-15T03:33:25.309Z,56.90
2023-04-15T03:34:25.221Z,56.06
2023-04-15T03:35:25.236Z,59.65
2023-04-15T03:36:25.225Z,58.36
2023-04-15T03:37:25.228Z,58.60
2023-04-15T03:38:25.216Z,57.12
2023-04-15T03:39:25.189Z,55.84
2023-04-15T03:40:25.167Z,57.59
2023-04-15T03:41:25.159Z,59.08
2023-04-15T03:42:25.166Z,58.02
2023-04-15T03:43:25.125Z,57.66
2023-04-15T03:44:25.157Z,57.29
2023-04-15T03:45:25.150Z,58.15
2023-04-15T03:46:25.102Z,58.83
2023-04-15T03:47:25.118Z,56.77
2023-04-15T03:48:25.097Z,57.57
2023-04-15T03:49:25.141Z,57.87
2023-04-15T03:50:25.052Z,58.84
2023-04-15T03:51:26.037Z,59.40
2023-04-15T03:52:25.049Z,58.54
2023-04-15T03:53:24.999Z,58.86
2023-04-15T03:54:25.023Z,59.22
2023-04-15T03:55:25.055Z,57.78
2023-04-15T03:56:25.004Z,58.06
2023-04-15T03:57:24.980Z,57.93
2023-04-15T03:58:24.989Z,57.81
2023-04-15T03:59:24.929Z,57.32
2023-04-15T04:00:24.970Z,58.28
2023-04-15T04:01:24.929Z,58.35
2023-04-15T04:04:45.588Z,60.51
2023-04-15T04:05:45.347Z,61.52
2023-04-15T04:06:45.349Z,61.05
2023-04-15T04:07:45.293Z,61.69
2023-04-15T04:08:45.288Z,61.13
2023-04-15T04:09:47.029Z,61.92
2023-04-15T04:10:45.271Z,61.54
2023-04-15T04:11:45.276Z,62.19
2023-04-15T04:12:45.236Z,61.29
2023-04-15T04:13:45.239Z,60.76
2023-04-15T04:14:45.228Z,61.74
2023-04-15T04:15:45.220Z,61.23
2023-04-15T04:16:45.263Z,61.63
2023-04-15T04:17:45.248Z,60.83
2023-04-15T04:18:45.164Z,63.11
2023-04-15T04:19:45.157Z,60.84
2023-04-15T04:20:45.137Z,61.74
2023-04-15T04:21:45.158Z,60.69
2023-04-15T04:22:45.140Z,61.14
2023-04-15T04:23:45.124Z,61.09
2023-04-15T04:24:45.090Z,59.98
2023-04-15T04:25:45.089Z,60.09
2023-04-15T04:26:45.075Z,60.67
2023-04-15T04:27:45.082Z,61.08
2023-04-15T04:28:45.069Z,60.06
2023-04-15T04:29:45.043Z,59.27
2023-04-15T04:30:45.023Z,60.78
2023-04-15T04:31:45.036Z,60.94
2023-04-15T04:32:45.057Z,60.79
2023-04-15T04:33:45.030Z,60.62
2023-04-15T04:34:45.021Z,59.44
2023-04-15T04:35:44.958Z,60.95
2023-04-15T04:36:44.964Z,61.52
2023-04-15T04:37:44.968Z,58.99
2023-04-15T04:38:44.929Z,60.66
2023-04-15T04:39:44.971Z,60.79
2023-04-15T04:40:44.925Z,60.86
2023-04-15T04:41:44.909Z,61.03
2023-04-15T04:42:44.880Z,60.56
2023-04-15T04:43:44.858Z,60.36
2023-04-15T04:44:44.850Z,60.33
2023-04-15T04:45:44.890Z,61.07
2023-04-15T04:46:44.833Z,59.79
2023-04-15T04:47:44.910Z,60.18
2023-04-15T04:48:46.630Z,59.77
2023-04-15T04:49:44.853Z,59.81
2023-04-15T04:50:44.839Z,60.57
2023-04-15T04:51:44.767Z,61.80
2023-04-15T04:52:44.754Z,60.73
2023-04-15T04:53:44.737Z,60.19
2023-04-15T04:54:44.732Z,61.89
2023-04-15T04:55:44.771Z,62.24
2023-04-15T04:56:44.702Z,60.45
2023-04-15T04:57:44.686Z,60.97
2023-04-15T04:58:44.681Z,60.18
2023-04-15T04:59:44.670Z,60.14
2023-04-15T05:00:44.657Z,60.89
2023-04-15T05:01:44.740Z,60.65
2023-04-15T05:02:44.717Z,60.43
2023-04-15T05:03:44.700Z,62.17
2023-04-15T05:04:44.628Z,62.07
2023-04-15T05:05:44.590Z,62.89
2023-04-15T05:06:44.591Z,61.58
2023-04-15T05:07:44.589Z,62.41
2023-04-15T05:08:44.563Z,61.96
2023-04-15T05:09:44.631Z,61.47
2023-04-15T05:10:44.532Z,62.25
2023-04-15T05:11:44.587Z,61.83
2023-04-15T05:12:44.548Z,61.01
2023-04-15T05:13:44.500Z,61.28
2023-04-15T05:14:44.489Z,61.46
2023-04-15T05:15:44.556Z,62.40
2023-04-15T05:16:44.469Z,62.05
2023-04-15T05:17:44.568Z,62.21
2023-04-15T05:18:44.442Z,62.26
2023-04-15T05:19:44.429Z,60.43
2023-04-15T05:20:44.465Z,62.92
2023-04-15T05:21:44.400Z,62.68
2023-04-15T05:22:44.406Z,61.42
2023-04-15T05:23:44.462Z,63.49
2023-04-15T05:24:44.372Z,62.89
2023-04-15T05:25:44.371Z,63.90
2023-04-15T05:26:44.358Z,62.36
2023-04-15T05:27:44.498Z,63.68
2023-04-15T05:28:44.351Z,61.53
2023-04-15T05:29:44.325Z,62.55
2023-04-15T05:30:44.471Z,61.93
2023-04-15T05:31:44.276Z,61.55
2023-04-15T05:32:44.339Z,62.08
2023-04-15T05:33:44.281Z,61.15
2023-04-15T05:34:44.295Z,61.23
2023-04-15T05:35:44.256Z,60.83
2023-04-15T05:36:44.232Z,62.90
2023-04-15T05:37:44.208Z,61.41
2023-04-15T05:38:44.209Z,62.97
2023-04-15T05:39:44.216Z,62.66
2023-04-15T05:40:44.210Z,61.34
2023-04-15T05:41:44.181Z,59.46
2023-04-15T05:42:44.193Z,61.17
2023-04-15T05:43:44.130Z,62.03
2023-04-15T05:44:44.123Z,61.49
2023-04-15T05:45:44.146Z,60.62
2023-04-15T05:46:44.190Z,61.23
2023-04-15T05:47:44.114Z,61.99
2023-04-15T05:48:44.072Z,61.50
2023-04-15T05:49:44.055Z,60.87
2023-04-15T05:50:45.196Z,62.69
2023-04-15T05:51:45.197Z,62.20
2023-04-15T05:52:45.162Z,62.72
2023-04-15T05:53:45.226Z,61.64
2023-04-15T05:54:45.136Z,61.61
2023-04-15T05:55:45.598Z,62.15
2023-04-15T05:56:45.215Z,60.09
2023-04-15T05:57:45.097Z,61.90
2023-04-15T05:58:45.106Z,61.21
2023-04-15T05:59:45.092Z,61.06
2023-04-15T06:00:45.048Z,62.11
2023-04-15T06:01:45.271Z,62.64
2023-04-15T06:02:45.213Z,61.84
2023-04-15T06:03:45.272Z,62.35
2023-04-15T06:04:45.488Z,61.17
2023-04-15T06:05:45.036Z,61.71
2023-04-15T06:06:45.005Z,62.21
2023-04-15T06:07:47.348Z,62.94
2023-04-15T06:08:44.982Z,61.65
2023-04-15T06:09:45.006Z,62.98
2023-04-15T06:10:44.952Z,61.32
2023-04-15T06:11:44.969Z,61.61
2023-04-15T06:12:44.964Z,60.49
2023-04-15T06:13:44.935Z,60.76
2023-04-15T06:14:44.976Z,61.88
2023-04-15T06:15:44.932Z,61.57
2023-04-15T06:16:44.958Z,62.60
2023-04-15T06:17:44.961Z,62.71
2023-04-15T06:18:44.910Z,62.21
2023-04-15T06:19:44.875Z,61.78
2023-04-15T06:20:44.844Z,61.81
2023-04-15T06:21:44.860Z,62.38
2023-04-15T06:22:44.822Z,61.71
2023-04-15T06:23:44.867Z,61.66
2023-04-15T06:24:44.801Z,62.83
2023-04-15T06:25:44.783Z,61.20
2023-04-15T06:26:44.797Z,60.94
2023-04-15T06:27:44.849Z,62.11
2023-04-15T06:28:44.784Z,62.12
2023-04-15T06:29:44.744Z,62.28
2023-04-15T06:31:44.735Z,62.50
2023-04-15T06:32:44.745Z,62.31
2023-04-15T06:33:44.840Z,61.40
2023-04-15T06:34:44.696Z,63.27
2023-04-15T06:35:44.668Z,63.77
2023-04-15T06:36:44.671Z,61.79
2023-04-15T06:37:44.650Z,62.68
2023-04-15T06:46:34.905Z,60.77
2023-04-15T06:47:34.862Z,60.05
2023-04-15T06:48:34.955Z,62.94
2023-04-15T06:49:34.748Z,60.89
2023-04-15T06:50:34.767Z,63.35
2023-04-15T06:51:34.712Z,61.60
2023-04-15T06:52:34.707Z,61.94
2023-04-15T06:53:34.686Z,63.16
2023-04-15T06:54:34.695Z,62.33
2023-04-15T06:55:34.678Z,62.71
2023-04-15T06:56:34.701Z,61.33
2023-04-15T06:57:35.143Z,59.03
2023-04-15T06:58:34.632Z,59.67
2023-04-15T06:59:34.608Z,61.47
2023-04-15T07:00:34.628Z,61.51
2023-04-15T07:01:34.654Z,61.46
2023-04-15T07:02:34.666Z,61.90
2023-04-15T07:03:34.564Z,60.42
2023-04-15T07:04:34.661Z,61.30
2023-04-15T07:05:34.557Z,61.36
2023-04-15T07:06:34.538Z,60.79
2023-04-15T07:07:34.538Z,60.28
2023-04-15T07:08:34.539Z,61.04
2023-04-15T07:09:34.497Z,62.67
2023-04-15T07:10:34.483Z,63.01
2023-04-15T07:11:34.493Z,63.10
2023-04-15T07:12:34.510Z,61.42
2023-04-15T07:13:34.441Z,62.73
2023-04-15T07:14:34.444Z,61.62
2023-04-15T07:15:34.509Z,63.26
2023-04-15T07:16:34.434Z,63.71
2023-04-15T07:17:34.442Z,62.35
